sensor_id;sensor_type;location;lat;lon;timestamp;temperature;humidity
9383;DHT22;4731;49.708;10.816;2023-05-29T00:02:01;13.70;99.90
9383;DHT22;4731;49.708;10.816;2023-05-29T00:06:54;13.60;99.90
9383;DHT22;4731;49.708;10.816;2023-05-29T00:14:17;13.40;99.90
9383;DHT22;4731;49.708;10.816;2023-05-29T00:16:45;13.40;99.90
9383;DHT22;4731;49.708;10.816;2023-05-29T00:21:40;13.30;99.90
9383;DHT22;4731;49.708;10.816;2023-05-29T00:24:07;13.20;99.90
9383;DHT22;4731;49.708;10.816;2023-05-29T00:26:34;14.50;99.90
9383;DHT22;4731;49.708;10.816;2023-05-29T00:29:02;17.30;99.90
9383;DHT22;4731;49.708;10.816;2023-05-29T00:31:30;13.10;99.90
9383;DHT22;4731;49.708;10.816;2023-05-29T00:33:56;13.10;99.90
9383;DHT22;4731;49.708;10.816;2023-05-29T00:41:18;13.00;99.90
9383;DHT22;4731;49.708;10.816;2023-05-29T00:43:44;12.90;99.90
9383;DHT22;4731;49.708;10.816;2023-05-29T00:46:13;12.80;99.90
9383;DHT22;4731;49.708;10.816;2023-05-29T00:48:41;12.80;99.90
9383;DHT22;4731;49.708;10.816;2023-05-29T00:51:09;12.70;99.90
9383;DHT22;4731;49.708;10.816;2023-05-29T00:53:38;12.70;99.90
9383;DHT22;4731;49.708;10.816;2023-05-29T00:58:33;12.70;99.90
9383;DHT22;4731;49.708;10.816;2023-05-29T01:03:30;12.70;99.90
9383;DHT22;4731;49.708;10.816;2023-05-29T01:05:57;12.50;99.90
9383;DHT22;4731;49.708;10.816;2023-05-29T01:08:24;12.50;99.90
9383;DHT22;4731;49.708;10.816;2023-05-29T01:10:52;12.50;99.90
9383;DHT22;4731;49.708;10.816;2023-05-29T01:13:24;12.50;99.90
9383;DHT22;4731;49.708;10.816;2023-05-29T01:15:57;12.40;99.90
9383;DHT22;4731;49.708;10.816;2023-05-29T01:18:34;12.40;99.90
9383;DHT22;4731;49.708;10.816;2023-05-29T01:21:07;12.40;99.90
9383;DHT22;4731;49.708;10.816;2023-05-29T01:23:52;14.20;99.90
9383;DHT22;4731;49.708;10.816;2023-05-29T01:26:40;12.40;99.90
9383;DHT22;4731;49.708;10.816;2023-05-29T01:29:10;12.30;99.90
9383;DHT22;4731;49.708;10.816;2023-05-29T01:31:42;12.10;99.90
9383;DHT22;4731;49.708;10.816;2023-05-29T01:34:10;12.10;99.90
9383;DHT22;4731;49.708;10.816;2023-05-29T01:36:37;12.10;99.90
9383;DHT22;4731;49.708;10.816;2023-05-29T01:39:04;12.10;99.90
9383;DHT22;4731;49.708;10.816;2023-05-29T01:41:34;12.10;99.90
9383;DHT22;4731;49.708;10.816;2023-05-29T01:44:03;12.00;99.90
9383;DHT22;4731;49.708;10.816;2023-05-29T01:46:30;12.10;99.90
9383;DHT22;4731;49.708;10.816;2023-05-29T01:51:24;12.10;99.90
9383;DHT22;4731;49.708;10.816;2023-05-29T01:53:51;12.10;99.90
9383;DHT22;4731;49.708;10.816;2023-05-29T01:56:18;12.00;99.90
9383;DHT22;4731;49.708;10.816;2023-05-29T01:58:47;12.00;99.90
9383;DHT22;4731;49.708;10.816;2023-05-29T02:01:14;11.90;99.90
9383;DHT22;4731;49.708;10.816;2023-05-29T02:06:08;11.80;99.90
9383;DHT22;4731;49.708;10.816;2023-05-29T02:11:03;11.70;99.90
9383;DHT22;4731;49.708;10.816;2023-05-29T02:18:25;11.70;99.90
9383;DHT22;4731;49.708;10.816;2023-05-29T02:20:52;14.90;99.90
9383;DHT22;4731;49.708;10.816;2023-05-29T02:23:19;13.20;99.90
9383;DHT22;4731;49.708;10.816;2023-05-29T02:25:46;11.70;99.90
9383;DHT22;4731;49.708;10.816;2023-05-29T02:28:13;13.90;99.90
9383;DHT22;4731;49.708;10.816;2023-05-29T02:30:40;12.90;99.90
9383;DHT22;4731;49.708;10.816;2023-05-29T02:33:09;11.70;99.90
9383;DHT22;4731;49.708;10.816;2023-05-29T02:35:36;12.10;99.90
9383;DHT22;4731;49.708;10.816;2023-05-29T02:38:02;11.70;99.90
9383;DHT22;4731;49.708;10.816;2023-05-29T02:40:29;11.50;99.90
9383;DHT22;4731;49.708;10.816;2023-05-29T02:42:56;11.50;99.90
9383;DHT22;4731;49.708;10.816;2023-05-29T02:45:23;11.50;99.90
9383;DHT22;4731;49.708;10.816;2023-05-29T02:47:49;12.50;99.90
9383;DHT22;4731;49.708;10.816;2023-05-29T02:50:18;11.50;99.90
9383;DHT22;4731;49.708;10.816;2023-05-29T02:52:44;11.40;99.90
9383;DHT22;4731;49.708;10.816;2023-05-29T02:55:11;11.30;99.90
9383;DHT22;4731;49.708;10.816;2023-05-29T02:57:38;11.30;99.90
9383;DHT22;4731;49.708;10.816;2023-05-29T03:00:07;11.30;99.90
9383;DHT22;4731;49.708;10.816;2023-05-29T03:02:34;11.20;99.90
9383;DHT22;4731;49.708;10.816;2023-05-29T03:05:01;11.20;99.90
9383;DHT22;4731;49.708;10.816;2023-05-29T03:07:30;12.60;99.90
9383;DHT22;4731;49.708;10.816;2023-05-29T03:09:56;11.10;99.90
9383;DHT22;4731;49.708;10.816;2023-05-29T03:12:23;11.10;99.90
9383;DHT22;4731;49.708;10.816;2023-05-29T03:14:50;11.10;99.90
9383;DHT22;4731;49.708;10.816;2023-05-29T03:19:44;11.00;99.90
9383;DHT22;4731;49.708;10.816;2023-05-29T03:24:39;11.00;99.90
9383;DHT22;4731;49.708;10.816;2023-05-29T03:27:06;10.90;99.90
9383;DHT22;4731;49.708;10.816;2023-05-29T03:29:33;12.50;99.90
9383;DHT22;4731;49.708;10.816;2023-05-29T03:32:00;11.00;99.90
9383;DHT22;4731;49.708;10.816;2023-05-29T03:34:27;8.30;99.90
9383;DHT22;4731;49.708;10.816;2023-05-29T03:36:54;10.90;99.90
9383;DHT22;4731;49.708;10.816;2023-05-29T03:39:22;10.90;99.90
9383;DHT22;4731;49.708;10.816;2023-05-29T03:41:50;12.40;99.90
9383;DHT22;4731;49.708;10.816;2023-05-29T03:46:44;10.90;99.90
9383;DHT22;4731;49.708;10.816;2023-05-29T03:49:11;11.10;99.90
9383;DHT22;4731;49.708;10.816;2023-05-29T03:51:37;11.00;99.90
9383;DHT22;4731;49.708;10.816;2023-05-29T03:54:05;10.90;99.90
9383;DHT22;4731;49.708;10.816;2023-05-29T03:56:31;10.90;99.90
9383;DHT22;4731;49.708;10.816;2023-05-29T03:59:00;12.80;99.90
9383;DHT22;4731;49.708;10.816;2023-05-29T04:01:26;11.00;99.90
9383;DHT22;4731;49.708;10.816;2023-05-29T04:03:53;11.00;99.90
9383;DHT22;4731;49.708;10.816;2023-05-29T04:08:48;11.10;99.90
9383;DHT22;4731;49.708;10.816;2023-05-29T04:13:42;11.20;99.90
9383;DHT22;4731;49.708;10.816;2023-05-29T04:18:37;11.20;99.90
9383;DHT22;4731;49.708;10.816;2023-05-29T04:21:04;11.20;99.90
9383;DHT22;4731;49.708;10.816;2023-05-29T04:23:31;11.30;99.90
9383;DHT22;4731;49.708;10.816;2023-05-29T04:25:58;11.40;99.90
9383;DHT22;4731;49.708;10.816;2023-05-29T04:28:27;11.40;99.90
9383;DHT22;4731;49.708;10.816;2023-05-29T04:30:54;11.50;99.90
9383;DHT22;4731;49.708;10.816;2023-05-29T04:33:23;11.50;99.90
9383;DHT22;4731;49.708;10.816;2023-05-29T04:35:49;11.60;99.90
9383;DHT22;4731;49.708;10.816;2023-05-29T04:38:16;11.80;99.90
9383;DHT22;4731;49.708;10.816;2023-05-29T04:40:44;15.30;99.90
9383;DHT22;4731;49.708;10.816;2023-05-29T04:43:11;12.00;99.90
9383;DHT22;4731;49.708;10.816;2023-05-29T04:50:35;12.60;99.90
9383;DHT22;4731;49.708;10.816;2023-05-29T04:53:04;12.60;99.90
9383;DHT22;4731;49.708;10.816;2023-05-29T04:55:31;12.80;99.90
9383;DHT22;4731;49.708;10.816;2023-05-29T04:57:57;14.70;99.90
9383;DHT22;4731;49.708;10.816;2023-05-29T05:00:25;13.90;99.90
9383;DHT22;4731;49.708;10.816;2023-05-29T05:10:15;14.10;99.90
9383;DHT22;4731;49.708;10.816;2023-05-29T05:15:10;14.20;99.90
9383;DHT22;4731;49.708;10.816;2023-05-29T05:20:05;14.60;99.90
9383;DHT22;4731;49.708;10.816;2023-05-29T05:22:34;15.00;99.90
9383;DHT22;4731;49.708;10.816;2023-05-29T05:25:02;15.00;99.90
9383;DHT22;4731;49.708;10.816;2023-05-29T05:29:56;15.40;99.90
9383;DHT22;4731;49.708;10.816;2023-05-29T05:32:23;15.60;99.90
9383;DHT22;4731;49.708;10.816;2023-05-29T05:37:17;15.90;99.90
9383;DHT22;4731;49.708;10.816;2023-05-29T05:42:12;16.30;99.90
9383;DHT22;4731;49.708;10.816;2023-05-29T05:44:40;16.30;99.90
9383;DHT22;4731;49.708;10.816;2023-05-29T05:47:07;16.50;99.90
9383;DHT22;4731;49.708;10.816;2023-05-29T05:49:34;16.70;99.90
9383;DHT22;4731;49.708;10.816;2023-05-29T05:52:01;17.90;99.90
9383;DHT22;4731;49.708;10.816;2023-05-29T05:54:28;17.00;99.90
9383;DHT22;4731;49.708;10.816;2023-05-29T05:56:55;19.10;99.90
9383;DHT22;4731;49.708;10.816;2023-05-29T05:59:23;17.90;99.90
9383;DHT22;4731;49.708;10.816;2023-05-29T06:01:49;17.20;99.90
9383;DHT22;4731;49.708;10.816;2023-05-29T06:04:17;17.30;99.90
9383;DHT22;4731;49.708;10.816;2023-05-29T06:06:44;17.90;99.90
9383;DHT22;4731;49.708;10.816;2023-05-29T06:09:10;18.90;99.90
9383;DHT22;4731;49.708;10.816;2023-05-29T06:11:37;17.90;99.90
9383;DHT22;4731;49.708;10.816;2023-05-29T06:14:04;18.10;99.90
9383;DHT22;4731;49.708;10.816;2023-05-29T06:16:32;19.10;99.90
9383;DHT22;4731;49.708;10.816;2023-05-29T06:19:00;18.30;99.90
9383;DHT22;4731;49.708;10.816;2023-05-29T06:21:27;19.70;99.90
9383;DHT22;4731;49.708;10.816;2023-05-29T06:23:54;18.10;99.90
9383;DHT22;4731;49.708;10.816;2023-05-29T06:26:20;18.20;99.90
9383;DHT22;4731;49.708;10.816;2023-05-29T06:28:47;19.00;99.90
9383;DHT22;4731;49.708;10.816;2023-05-29T06:31:14;18.50;99.90
9383;DHT22;4731;49.708;10.816;2023-05-29T06:33:42;18.60;99.90
9383;DHT22;4731;49.708;10.816;2023-05-29T06:36:09;19.00;99.90
9383;DHT22;4731;49.708;10.816;2023-05-29T06:38:36;20.20;99.90
9383;DHT22;4731;49.708;10.816;2023-05-29T06:41:03;19.30;99.90
9383;DHT22;4731;49.708;10.816;2023-05-29T06:43:29;19.30;99.90
9383;DHT22;4731;49.708;10.816;2023-05-29T06:45:56;19.40;99.90
9383;DHT22;4731;49.708;10.816;2023-05-29T06:48:23;19.70;99.90
9383;DHT22;4731;49.708;10.816;2023-05-29T06:50:51;19.80;99.90
9383;DHT22;4731;49.708;10.816;2023-05-29T06:53:18;20.10;99.90
9383;DHT22;4731;49.708;10.816;2023-05-29T06:55:45;19.90;99.90
9383;DHT22;4731;49.708;10.816;2023-05-29T06:58:12;19.90;99.90
9383;DHT22;4731;49.708;10.816;2023-05-29T07:00:39;20.20;99.90
9383;DHT22;4731;49.708;10.816;2023-05-29T07:03:06;20.60;99.90
9383;DHT22;4731;49.708;10.816;2023-05-29T07:05:33;20.90;99.90
9383;DHT22;4731;49.708;10.816;2023-05-29T07:08:01;20.90;99.90
9383;DHT22;4731;49.708;10.816;2023-05-29T07:10:28;20.80;99.90
9383;DHT22;4731;49.708;10.816;2023-05-29T07:12:55;21.00;99.90
9383;DHT22;4731;49.708;10.816;2023-05-29T07:15:21;21.20;99.90
9383;DHT22;4731;49.708;10.816;2023-05-29T07:17:48;21.20;99.90
9383;DHT22;4731;49.708;10.816;2023-05-29T07:20:15;21.20;99.90
9383;DHT22;4731;49.708;10.816;2023-05-29T07:22:45;21.40;99.90
9383;DHT22;4731;49.708;10.816;2023-05-29T07:25:13;21.70;99.90
9383;DHT22;4731;49.708;10.816;2023-05-29T07:27:40;21.90;99.90
9383;DHT22;4731;49.708;10.816;2023-05-29T07:30:08;22.20;99.90
9383;DHT22;4731;49.708;10.816;2023-05-29T07:32:34;22.00;99.90
9383;DHT22;4731;49.708;10.816;2023-05-29T07:35:01;22.20;99.90
9383;DHT22;4731;49.708;10.816;2023-05-29T07:37:28;22.10;99.90
9383;DHT22;4731;49.708;10.816;2023-05-29T07:39:55;22.20;99.90
9383;DHT22;4731;49.708;10.816;2023-05-29T07:42:23;22.30;99.90
9383;DHT22;4731;49.708;10.816;2023-05-29T07:44:50;22.50;99.90
9383;DHT22;4731;49.708;10.816;2023-05-29T07:47:17;22.70;99.90
9383;DHT22;4731;49.708;10.816;2023-05-29T07:49:44;22.80;99.90
9383;DHT22;4731;49.708;10.816;2023-05-29T07:52:11;23.00;99.90
9383;DHT22;4731;49.708;10.816;2023-05-29T07:54:38;23.20;99.90
9383;DHT22;4731;49.708;10.816;2023-05-29T07:57:05;23.20;99.90
9383;DHT22;4731;49.708;10.816;2023-05-29T07:59:36;23.30;99.90
9383;DHT22;4731;49.708;10.816;2023-05-29T08:02:03;23.60;99.90
9383;DHT22;4731;49.708;10.816;2023-05-29T08:04:30;23.80;99.90
9383;DHT22;4731;49.708;10.816;2023-05-29T08:06:57;23.70;99.90
9383;DHT22;4731;49.708;10.816;2023-05-29T08:09:24;23.80;99.90
9383;DHT22;4731;49.708;10.816;2023-05-29T08:11:51;23.90;99.90
9383;DHT22;4731;49.708;10.816;2023-05-29T08:14:20;24.10;99.90
9383;DHT22;4731;49.708;10.816;2023-05-29T08:16:48;24.20;99.90
9383;DHT22;4731;49.708;10.816;2023-05-29T08:19:15;24.20;99.90
9383;DHT22;4731;49.708;10.816;2023-05-29T08:21:42;23.90;99.90
9383;DHT22;4731;49.708;10.816;2023-05-29T08:24:09;24.00;99.90
9383;DHT22;4731;49.708;10.816;2023-05-29T08:26:36;24.10;99.90
9383;DHT22;4731;49.708;10.816;2023-05-29T08:29:02;25.00;99.90
9383;DHT22;4731;49.708;10.816;2023-05-29T08:31:29;24.40;99.90
9383;DHT22;4731;49.708;10.816;2023-05-29T08:33:58;24.40;99.90
9383;DHT22;4731;49.708;10.816;2023-05-29T08:36:25;24.60;99.90
9383;DHT22;4731;49.708;10.816;2023-05-29T08:38:52;24.70;99.90
9383;DHT22;4731;49.708;10.816;2023-05-29T08:41:24;24.10;99.90
9383;DHT22;4731;49.708;10.816;2023-05-29T08:43:52;24.00;99.90
9383;DHT22;4731;49.708;10.816;2023-05-29T08:46:19;24.30;99.90
9383;DHT22;4731;49.708;10.816;2023-05-29T08:48:48;26.60;99.90
9383;DHT22;4731;49.708;10.816;2023-05-29T08:51:19;24.20;99.90
9383;DHT22;4731;49.708;10.816;2023-05-29T08:53:47;24.50;99.90
9383;DHT22;4731;49.708;10.816;2023-05-29T08:56:14;24.80;99.90
9383;DHT22;4731;49.708;10.816;2023-05-29T08:58:41;26.10;99.90
9383;DHT22;4731;49.708;10.816;2023-05-29T09:01:09;25.80;99.90
9383;DHT22;4731;49.708;10.816;2023-05-29T09:03:37;25.10;99.90
9383;DHT22;4731;49.708;10.816;2023-05-29T09:06:04;25.30;99.90
9383;DHT22;4731;49.708;10.816;2023-05-29T09:08:34;25.30;99.90
9383;DHT22;4731;49.708;10.816;2023-05-29T09:11:01;25.30;99.90
9383;DHT22;4731;49.708;10.816;2023-05-29T09:13:30;25.60;99.90
9383;DHT22;4731;49.708;10.816;2023-05-29T09:15:58;25.70;99.90
9383;DHT22;4731;49.708;10.816;2023-05-29T09:18:29;25.90;99.90
9383;DHT22;4731;49.708;10.816;2023-05-29T09:20:57;28.70;99.00
9383;DHT22;4731;49.708;10.816;2023-05-29T09:23:27;26.40;97.10
9383;DHT22;4731;49.708;10.816;2023-05-29T09:28:24;26.60;98.50
9383;DHT22;4731;49.708;10.816;2023-05-29T09:30:52;26.60;96.50
9383;DHT22;4731;49.708;10.816;2023-05-29T09:33:48;26.20;94.70
9383;DHT22;4731;49.708;10.816;2023-05-29T09:36:39;26.30;96.00
9383;DHT22;4731;49.708;10.816;2023-05-29T09:39:16;24.40;94.30
9383;DHT22;4731;49.708;10.816;2023-05-29T09:41:46;27.40;95.80
9383;DHT22;4731;49.708;10.816;2023-05-29T09:44:16;26.30;97.80
9383;DHT22;4731;49.708;10.816;2023-05-29T09:46:48;26.60;94.90
9383;DHT22;4731;49.708;10.816;2023-05-29T09:49:15;26.80;93.50
9383;DHT22;4731;49.708;10.816;2023-05-29T09:51:46;26.50;94.70
9383;DHT22;4731;49.708;10.816;2023-05-29T09:54:17;26.90;96.10
9383;DHT22;4731;49.708;10.816;2023-05-29T09:56:46;27.20;93.40
9383;DHT22;4731;49.708;10.816;2023-05-29T09:59:18;26.70;94.40
9383;DHT22;4731;49.708;10.816;2023-05-29T10:01:46;26.30;92.40
9383;DHT22;4731;49.708;10.816;2023-05-29T10:04:13;26.20;94.40
9383;DHT22;4731;49.708;10.816;2023-05-29T10:06:43;26.50;93.60
9383;DHT22;4731;49.708;10.816;2023-05-29T10:09:21;26.80;92.70
9383;DHT22;4731;49.708;10.816;2023-05-29T10:11:50;25.60;93.00
9383;DHT22;4731;49.708;10.816;2023-05-29T10:14:25;26.20;93.00
9383;DHT22;4731;49.708;10.816;2023-05-29T10:16:55;26.20;93.30
9383;DHT22;4731;49.708;10.816;2023-05-29T10:19:27;26.10;91.60
9383;DHT22;4731;49.708;10.816;2023-05-29T10:21:56;26.00;93.10
9383;DHT22;4731;49.708;10.816;2023-05-29T10:24:24;26.20;94.20
9383;DHT22;4731;49.708;10.816;2023-05-29T10:26:52;26.40;93.70
9383;DHT22;4731;49.708;10.816;2023-05-29T10:29:28;27.00;94.00
9383;DHT22;4731;49.708;10.816;2023-05-29T10:32:12;26.90;92.60
9383;DHT22;4731;49.708;10.816;2023-05-29T10:34:47;27.10;92.40
9383;DHT22;4731;49.708;10.816;2023-05-29T10:37:23;27.30;91.50
9383;DHT22;4731;49.708;10.816;2023-05-29T10:40:04;28.00;90.90
9383;DHT22;4731;49.708;10.816;2023-05-29T10:42:44;27.00;88.40
9383;DHT22;4731;49.708;10.816;2023-05-29T10:45:47;27.20;93.40
9383;DHT22;4731;49.708;10.816;2023-05-29T10:48:37;27.60;91.30
9383;DHT22;4731;49.708;10.816;2023-05-29T10:51:06;27.60;88.90
9383;DHT22;4731;49.708;10.816;2023-05-29T10:53:33;27.50;90.00
9383;DHT22;4731;49.708;10.816;2023-05-29T10:56:08;27.60;90.30
9383;DHT22;4731;49.708;10.816;2023-05-29T10:58:37;27.50;90.10
9383;DHT22;4731;49.708;10.816;2023-05-29T11:01:08;27.60;89.10
9383;DHT22;4731;49.708;10.816;2023-05-29T11:03:35;27.90;88.80
9383;DHT22;4731;49.708;10.816;2023-05-29T11:06:03;27.80;89.60
9383;DHT22;4731;49.708;10.816;2023-05-29T11:08:34;28.00;88.00
9383;DHT22;4731;49.708;10.816;2023-05-29T11:11:03;28.00;86.80
9383;DHT22;4731;49.708;10.816;2023-05-29T11:13:33;28.10;84.90
9383;DHT22;4731;49.708;10.816;2023-05-29T11:16:12;28.00;84.40
9383;DHT22;4731;49.708;10.816;2023-05-29T11:18:47;27.80;87.20
9383;DHT22;4731;49.708;10.816;2023-05-29T11:21:29;28.00;82.50
9383;DHT22;4731;49.708;10.816;2023-05-29T11:23:58;27.40;82.00
9383;DHT22;4731;49.708;10.816;2023-05-29T11:26:27;28.00;85.80
9383;DHT22;4731;49.708;10.816;2023-05-29T11:29:03;27.90;84.10
9383;DHT22;4731;49.708;10.816;2023-05-29T11:31:33;28.00;86.10
9383;DHT22;4731;49.708;10.816;2023-05-29T11:34:02;28.30;82.80
9383;DHT22;4731;49.708;10.816;2023-05-29T11:36:31;28.40;86.00
9383;DHT22;4731;49.708;10.816;2023-05-29T11:38:59;28.30;82.60
9383;DHT22;4731;49.708;10.816;2023-05-29T11:41:26;28.40;81.30
9383;DHT22;4731;49.708;10.816;2023-05-29T11:43:57;28.30;83.50
9383;DHT22;4731;49.708;10.816;2023-05-29T11:46:30;28.00;82.60
9383;DHT22;4731;49.708;10.816;2023-05-29T11:48:59;28.20;82.10
9383;DHT22;4731;49.708;10.816;2023-05-29T11:51:27;28.30;81.10
9383;DHT22;4731;49.708;10.816;2023-05-29T11:53:55;28.40;82.00
9383;DHT22;4731;49.708;10.816;2023-05-29T11:56:24;28.50;80.60
9383;DHT22;4731;49.708;10.816;2023-05-29T11:58:52;28.50;79.10
9383;DHT22;4731;49.708;10.816;2023-05-29T12:01:22;28.50;81.40
9383;DHT22;4731;49.708;10.816;2023-05-29T12:03:50;28.40;80.00
9383;DHT22;4731;49.708;10.816;2023-05-29T12:06:32;28.50;79.00
9383;DHT22;4731;49.708;10.816;2023-05-29T12:08:59;28.50;78.80
9383;DHT22;4731;49.708;10.816;2023-05-29T12:11:26;28.40;76.80
9383;DHT22;4731;49.708;10.816;2023-05-29T12:13:56;29.10;77.90
9383;DHT22;4731;49.708;10.816;2023-05-29T12:16:23;28.40;79.30
9383;DHT22;4731;49.708;10.816;2023-05-29T12:18:51;28.40;80.10
9383;DHT22;4731;49.708;10.816;2023-05-29T12:21:20;28.30;77.40
9383;DHT22;4731;49.708;10.816;2023-05-29T12:23:51;28.60;79.10
9383;DHT22;4731;49.708;10.816;2023-05-29T12:26:18;28.30;76.60
9383;DHT22;4731;49.708;10.816;2023-05-29T12:28:49;28.00;73.30
9383;DHT22;4731;49.708;10.816;2023-05-29T12:31:26;27.80;72.70
9383;DHT22;4731;49.708;10.816;2023-05-29T12:33:53;28.20;77.50
9383;DHT22;4731;49.708;10.816;2023-05-29T12:36:25;28.40;75.60
9383;DHT22;4731;49.708;10.816;2023-05-29T12:38:54;28.30;73.70
9383;DHT22;4731;49.708;10.816;2023-05-29T12:41:24;28.10;74.70
9383;DHT22;4731;49.708;10.816;2023-05-29T12:43:53;28.20;77.30
9383;DHT22;4731;49.708;10.816;2023-05-29T12:46:20;28.40;75.50
9383;DHT22;4731;49.708;10.816;2023-05-29T12:48:47;28.30;74.60
9383;DHT22;4731;49.708;10.816;2023-05-29T12:51:15;28.50;73.50
9383;DHT22;4731;49.708;10.816;2023-05-29T12:53:44;28.70;73.20
9383;DHT22;4731;49.708;10.816;2023-05-29T12:56:12;28.90;74.90
9383;DHT22;4731;49.708;10.816;2023-05-29T12:58:39;28.80;71.90
9383;DHT22;4731;49.708;10.816;2023-05-29T13:01:12;28.30;72.90
9383;DHT22;4731;49.708;10.816;2023-05-29T13:03:39;28.20;73.70
9383;DHT22;4731;49.708;10.816;2023-05-29T13:06:06;27.70;68.90
9383;DHT22;4731;49.708;10.816;2023-05-29T13:08:33;27.70;72.50
9383;DHT22;4731;49.708;10.816;2023-05-29T13:11:00;28.30;73.30
9383;DHT22;4731;49.708;10.816;2023-05-29T13:13:28;27.90;73.90
9383;DHT22;4731;49.708;10.816;2023-05-29T13:15:54;28.10;74.40
9383;DHT22;4731;49.708;10.816;2023-05-29T13:18:21;28.30;73.90
9383;DHT22;4731;49.708;10.816;2023-05-29T13:20:48;28.50;75.70
9383;DHT22;4731;49.708;10.816;2023-05-29T13:23:15;28.60;74.60
9383;DHT22;4731;49.708;10.816;2023-05-29T13:25:42;28.60;74.10
9383;DHT22;4731;49.708;10.816;2023-05-29T13:28:09;28.70;71.20
9383;DHT22;4731;49.708;10.816;2023-05-29T13:30:38;28.50;72.10
9383;DHT22;4731;49.708;10.816;2023-05-29T13:33:05;28.80;71.60
9383;DHT22;4731;49.708;10.816;2023-05-29T13:35:31;28.40;73.40
9383;DHT22;4731;49.708;10.816;2023-05-29T13:37:58;28.30;72.70
9383;DHT22;4731;49.708;10.816;2023-05-29T13:40:25;28.30;74.60
9383;DHT22;4731;49.708;10.816;2023-05-29T13:42:54;28.00;73.00
9383;DHT22;4731;49.708;10.816;2023-05-29T13:45:22;28.00;76.10
9383;DHT22;4731;49.708;10.816;2023-05-29T13:47:50;28.20;75.30
9383;DHT22;4731;49.708;10.816;2023-05-29T13:50:17;28.30;73.90
9383;DHT22;4731;49.708;10.816;2023-05-29T13:52:44;28.20;74.50
9383;DHT22;4731;49.708;10.816;2023-05-29T13:55:11;28.40;74.30
9383;DHT22;4731;49.708;10.816;2023-05-29T13:57:37;28.40;74.30
9383;DHT22;4731;49.708;10.816;2023-05-29T14:00:06;28.40;74.90
9383;DHT22;4731;49.708;10.816;2023-05-29T14:02:33;28.50;74.80
9383;DHT22;4731;49.708;10.816;2023-05-29T14:05:01;28.30;72.80
9383;DHT22;4731;49.708;10.816;2023-05-29T14:07:28;27.90;73.10
9383;DHT22;4731;49.708;10.816;2023-05-29T14:09:55;28.90;71.90
9383;DHT22;4731;49.708;10.816;2023-05-29T14:12:22;27.20;71.90
9383;DHT22;4731;49.708;10.816;2023-05-29T14:14:48;27.10;73.20
9383;DHT22;4731;49.708;10.816;2023-05-29T14:17:15;27.20;74.20
9383;DHT22;4731;49.708;10.816;2023-05-29T14:19:42;27.20;72.00
9383;DHT22;4731;49.708;10.816;2023-05-29T14:22:12;27.30;73.40
9383;DHT22;4731;49.708;10.816;2023-05-29T14:24:39;27.00;72.20
9383;DHT22;4731;49.708;10.816;2023-05-29T14:27:06;27.00;72.40
9383;DHT22;4731;49.708;10.816;2023-05-29T14:29:33;27.30;72.50
9383;DHT22;4731;49.708;10.816;2023-05-29T14:32:00;26.90;74.40
9383;DHT22;4731;49.708;10.816;2023-05-29T14:34:26;26.90;73.90
9383;DHT22;4731;49.708;10.816;2023-05-29T14:36:55;26.80;74.70
9383;DHT22;4731;49.708;10.816;2023-05-29T14:39:23;26.70;76.20
9383;DHT22;4731;49.708;10.816;2023-05-29T14:41:50;26.80;72.30
9383;DHT22;4731;49.708;10.816;2023-05-29T14:44:16;26.80;76.20
9383;DHT22;4731;49.708;10.816;2023-05-29T14:46:44;26.90;75.80
9383;DHT22;4731;49.708;10.816;2023-05-29T14:49:11;26.90;75.70
9383;DHT22;4731;49.708;10.816;2023-05-29T14:51:38;27.00;75.50
9383;DHT22;4731;49.708;10.816;2023-05-29T14:54:06;28.90;75.10
9383;DHT22;4731;49.708;10.816;2023-05-29T14:56:36;26.40;73.70
9383;DHT22;4731;49.708;10.816;2023-05-29T14:59:03;26.60;78.80
9383;DHT22;4731;49.708;10.816;2023-05-29T15:01:30;26.70;78.30
9383;DHT22;4731;49.708;10.816;2023-05-29T15:03:56;26.70;78.40
9383;DHT22;4731;49.708;10.816;2023-05-29T15:06:23;26.50;75.70
9383;DHT22;4731;49.708;10.816;2023-05-29T15:08:50;27.20;78.40
9383;DHT22;4731;49.708;10.816;2023-05-29T15:11:17;26.40;79.70
9383;DHT22;4731;49.708;10.816;2023-05-29T15:13:46;26.30;78.60
9383;DHT22;4731;49.708;10.816;2023-05-29T15:16:13;26.30;79.50
9383;DHT22;4731;49.708;10.816;2023-05-29T15:18:39;26.30;79.50
9383;DHT22;4731;49.708;10.816;2023-05-29T15:21:06;26.20;79.60
9383;DHT22;4731;49.708;10.816;2023-05-29T15:23:33;26.30;81.10
9383;DHT22;4731;49.708;10.816;2023-05-29T15:26:01;26.20;80.70
9383;DHT22;4731;49.708;10.816;2023-05-29T15:28:28;26.10;79.50
9383;DHT22;4731;49.708;10.816;2023-05-29T15:30:57;27.30;81.60
9383;DHT22;4731;49.708;10.816;2023-05-29T15:33:24;26.00;80.00
9383;DHT22;4731;49.708;10.816;2023-05-29T15:35:50;25.90;80.10
9383;DHT22;4731;49.708;10.816;2023-05-29T15:38:17;25.90;80.00
9383;DHT22;4731;49.708;10.816;2023-05-29T15:40:45;25.60;80.30
9383;DHT22;4731;49.708;10.816;2023-05-29T15:43:15;25.50;81.10
9383;DHT22;4731;49.708;10.816;2023-05-29T15:45:42;25.40;81.30
9383;DHT22;4731;49.708;10.816;2023-05-29T15:48:11;25.30;82.60
9383;DHT22;4731;49.708;10.816;2023-05-29T15:50:37;25.30;82.60
9383;DHT22;4731;49.708;10.816;2023-05-29T15:53:04;25.10;82.50
9383;DHT22;4731;49.708;10.816;2023-05-29T15:55:31;24.90;83.60
9383;DHT22;4731;49.708;10.816;2023-05-29T15:57:58;25.30;85.70
9383;DHT22;4731;49.708;10.816;2023-05-29T16:00:25;25.00;85.50
9383;DHT22;4731;49.708;10.816;2023-05-29T16:02:51;25.00;86.20
9383;DHT22;4731;49.708;10.816;2023-05-29T16:05:20;25.10;83.70
9383;DHT22;4731;49.708;10.816;2023-05-29T16:07:47;25.00;83.60
9383;DHT22;4731;49.708;10.816;2023-05-29T16:10:14;25.20;83.50
9383;DHT22;4731;49.708;10.816;2023-05-29T16:12:42;25.00;83.50
9383;DHT22;4731;49.708;10.816;2023-05-29T16:15:10;26.40;84.90
9383;DHT22;4731;49.708;10.816;2023-05-29T16:17:37;25.30;85.00
9383;DHT22;4731;49.708;10.816;2023-05-29T16:20:04;24.70;85.60
9383;DHT22;4731;49.708;10.816;2023-05-29T16:22:33;24.70;86.70
9383;DHT22;4731;49.708;10.816;2023-05-29T16:25:00;24.70;86.20
9383;DHT22;4731;49.708;10.816;2023-05-29T16:27:27;24.80;86.40
9383;DHT22;4731;49.708;10.816;2023-05-29T16:29:54;24.70;85.80
9383;DHT22;4731;49.708;10.816;2023-05-29T16:32:20;25.60;88.80
9383;DHT22;4731;49.708;10.816;2023-05-29T16:34:47;24.30;88.30
9383;DHT22;4731;49.708;10.816;2023-05-29T16:37:14;24.10;89.80
9383;DHT22;4731;49.708;10.816;2023-05-29T16:39:42;25.40;90.70
9383;DHT22;4731;49.708;10.816;2023-05-29T16:42:09;24.10;90.90
9383;DHT22;4731;49.708;10.816;2023-05-29T16:44:36;24.20;91.70
9383;DHT22;4731;49.708;10.816;2023-05-29T16:47:03;24.10;90.30
9383;DHT22;4731;49.708;10.816;2023-05-29T16:49:30;24.10;90.30
9383;DHT22;4731;49.708;10.816;2023-05-29T16:51:57;26.30;91.50
9383;DHT22;4731;49.708;10.816;2023-05-29T16:54:23;24.20;90.60
9383;DHT22;4731;49.708;10.816;2023-05-29T16:56:51;23.90;91.10
9383;DHT22;4731;49.708;10.816;2023-05-29T16:59:18;23.90;90.60
9383;DHT22;4731;49.708;10.816;2023-05-29T17:01:45;24.90;91.30
9383;DHT22;4731;49.708;10.816;2023-05-29T17:04:12;23.80;90.80
9383;DHT22;4731;49.708;10.816;2023-05-29T17:06:38;23.80;91.00